Raysville, Indiana
Current Conditions -  °F | °C
As of 4:35 PM on Friday 19 Dec 2014 (Local Time) from KMQJ Reporting Station
Overcast Overcast  
Wind Chill: 30°   Ceiling: 2600
Heat Index: 30°   Visibility: 10mi
Dew Point: 18°   Wind: 0mph
Humidity: 60%   Direction: NA
Pressure: 30.29"   Gusts: NA
Location:  39.8283°N, 85.543°W
Report Text: KMQJ 192135Z AUTO 00000KT 10SM OVC026 M01/M08 A3029 RMK AO1
Loading
Personal Weather Stations






























Interactive Weather Map New forecast layout! Learn more

10-Day Weather Forecast

Advertisements
Track Severe Weather on mobile